sensor_id;sensor_type;location;lat;lon;timestamp;pressure;altitude;pressure_sealevel;temperature;humidity
45327;BME280;31062;49.678;24.560;2022-10-16T00:01:39;98804.44;;;9.11;68.31
45327;BME280;31062;49.678;24.560;2022-10-16T00:04:06;98797.78;;;8.99;68.33
45327;BME280;31062;49.678;24.560;2022-10-16T00:06:33;98762.28;;;8.44;68.50
45327;BME280;31062;49.678;24.560;2022-10-16T00:08:59;98870.63;;;9.24;68.29
45327;BME280;31062;49.678;24.560;2022-10-16T00:11:30;98846.28;;;9.23;68.71
45327;BME280;31062;49.678;24.560;2022-10-16T00:14:01;98850.91;;;9.20;68.43
45327;BME280;31062;49.678;24.560;2022-10-16T00:16:29;98808.47;;;8.87;68.53
45327;BME280;31062;49.678;24.560;2022-10-16T00:18:56;98805.66;;;8.80;68.75
45327;BME280;31062;49.678;24.560;2022-10-16T00:21:25;98867.47;;;9.05;69.25
45327;BME280;31062;49.678;24.560;2022-10-16T00:24:11;98669.56;;;7.69;69.09
45327;BME280;31062;49.678;24.560;2022-10-16T00:26:39;98734.53;;;8.14;69.17
45327;BME280;31062;49.678;24.560;2022-10-16T00:29:06;98819.63;;;8.67;68.95
45327;BME280;31062;49.678;24.560;2022-10-16T00:31:33;98850.47;;;8.86;69.30
45327;BME280;31062;49.678;24.560;2022-10-16T00:34:01;98862.63;;;8.83;69.52
45327;BME280;31062;49.678;24.560;2022-10-16T00:36:28;98815.34;;;8.50;69.29
45327;BME280;31062;49.678;24.560;2022-10-16T00:38:58;98706.19;;;7.62;69.96
45327;BME280;31062;49.678;24.560;2022-10-16T00:41:32;98854.78;;;8.58;70.18
45327;BME280;31062;49.678;24.560;2022-10-16T00:44:02;98704.50;;;7.59;70.36
45327;BME280;31062;49.678;24.560;2022-10-16T00:46:35;98851.84;;;8.56;70.14
45327;BME280;31062;49.678;24.560;2022-10-16T00:49:12;98824.47;;;8.30;70.15
45327;BME280;31062;49.678;24.560;2022-10-16T00:54:12;98855.53;;;8.51;70.00
45327;BME280;31062;49.678;24.560;2022-10-16T00:56:40;98855.91;;;8.55;70.20
45327;BME280;31062;49.678;24.560;2022-10-16T00:59:16;98851.47;;;8.52;69.98
45327;BME280;31062;49.678;24.560;2022-10-16T01:01:46;98738.41;;;7.67;70.28
45327;BME280;31062;49.678;24.560;2022-10-16T01:04:13;98860.31;;;8.51;70.13
45327;BME280;31062;49.678;24.560;2022-10-16T01:06:54;98677.03;;;7.18;70.20
45327;BME280;31062;49.678;24.560;2022-10-16T01:09:34;98696.25;;;7.31;70.04
45327;BME280;31062;49.678;24.560;2022-10-16T01:14:43;98677.44;;;7.22;70.30
45327;BME280;31062;49.678;24.560;2022-10-16T01:17:19;98893.81;;;8.47;70.12
45327;BME280;31062;49.678;24.560;2022-10-16T01:20:10;98713.56;;;7.39;70.17
45327;BME280;31062;49.678;24.560;2022-10-16T01:25:36;98837.78;;;8.11;70.51
45327;BME280;31062;49.678;24.560;2022-10-16T01:28:09;98703.81;;;7.10;70.41
45327;BME280;31062;49.678;24.560;2022-10-16T01:30:40;98827.28;;;8.02;70.74
45327;BME280;31062;49.678;24.560;2022-10-16T01:33:15;98699.72;;;7.03;70.48
45327;BME280;31062;49.678;24.560;2022-10-16T01:35:49;98880.81;;;8.27;70.46
45327;BME280;31062;49.678;24.560;2022-10-16T01:38:39;98886.13;;;8.25;70.97
45327;BME280;31062;49.678;24.560;2022-10-16T01:41:36;98725.19;;;7.17;70.36
45327;BME280;31062;49.678;24.560;2022-10-16T01:46:37;98880.81;;;8.27;70.57
45327;BME280;31062;49.678;24.560;2022-10-16T01:49:06;98683.16;;;6.95;70.23
45327;BME280;31062;49.678;24.560;2022-10-16T01:51:35;98706.38;;;7.08;70.40
45327;BME280;31062;49.678;24.560;2022-10-16T01:54:06;98884.84;;;8.26;70.48
45327;BME280;31062;49.678;24.560;2022-10-16T01:56:35;98928.19;;;8.31;70.60
45327;BME280;31062;49.678;24.560;2022-10-16T01:59:10;98851.91;;;8.00;70.25
45327;BME280;31062;49.678;24.560;2022-10-16T02:01:40;98925.78;;;8.35;69.85
45327;BME280;31062;49.678;24.560;2022-10-16T02:04:14;98826.56;;;7.80;70.35
45327;BME280;31062;49.678;24.560;2022-10-16T02:06:43;98695.44;;;6.94;69.68
45327;BME280;31062;49.678;24.560;2022-10-16T02:09:10;98897.78;;;8.31;69.84
45327;BME280;31062;49.678;24.560;2022-10-16T02:11:37;98734.75;;;7.16;69.60
45327;BME280;31062;49.678;24.560;2022-10-16T02:14:05;98930.47;;;8.19;69.67
45327;BME280;31062;49.678;24.560;2022-10-16T02:16:41;98721.06;;;7.03;69.55
45327;BME280;31062;49.678;24.560;2022-10-16T02:19:12;98881.69;;;7.94;69.44
45327;BME280;31062;49.678;24.560;2022-10-16T02:21:43;98865.81;;;7.87;69.69
45327;BME280;31062;49.678;24.560;2022-10-16T02:24:38;98931.59;;;8.24;69.57
45327;BME280;31062;49.678;24.560;2022-10-16T02:27:15;98804.19;;;7.35;69.73
45327;BME280;31062;49.678;24.560;2022-10-16T02:29:53;98739.81;;;6.83;69.55
45327;BME280;31062;49.678;24.560;2022-10-16T02:32:29;98814.25;;;7.25;70.13
45327;BME280;31062;49.678;24.560;2022-10-16T02:34:58;98909.59;;;7.83;70.31
45327;BME280;31062;49.678;24.560;2022-10-16T02:37:26;98745.41;;;6.70;70.12
45327;BME280;31062;49.678;24.560;2022-10-16T02:39:56;98897.34;;;7.70;70.06
45327;BME280;31062;49.678;24.560;2022-10-16T02:42:29;98818.53;;;7.13;70.43
45327;BME280;31062;49.678;24.560;2022-10-16T02:44:56;98924.38;;;7.93;70.18
45327;BME280;31062;49.678;24.560;2022-10-16T02:47:23;98895.47;;;7.65;70.55
45327;BME280;31062;49.678;24.560;2022-10-16T02:49:50;98882.19;;;7.56;70.70
45327;BME280;31062;49.678;24.560;2022-10-16T02:52:17;98799.31;;;7.00;70.39
45327;BME280;31062;49.678;24.560;2022-10-16T02:54:44;98760.03;;;6.65;70.64
45327;BME280;31062;49.678;24.560;2022-10-16T02:57:10;98898.31;;;7.52;70.96
45327;BME280;31062;49.678;24.560;2022-10-16T02:59:38;98895.47;;;7.24;70.71
45327;BME280;31062;49.678;24.560;2022-10-16T03:02:05;98795.72;;;6.71;70.98
45327;BME280;31062;49.678;24.560;2022-10-16T03:04:32;98928.06;;;7.67;71.33
45327;BME280;31062;49.678;24.560;2022-10-16T03:06:59;98773.59;;;6.63;71.03
45327;BME280;31062;49.678;24.560;2022-10-16T03:09:26;98733.47;;;6.34;70.63
45327;BME280;31062;49.678;24.560;2022-10-16T03:11:52;98770.66;;;6.61;70.68
45327;BME280;31062;49.678;24.560;2022-10-16T03:14:19;98927.09;;;7.64;70.67
45327;BME280;31062;49.678;24.560;2022-10-16T03:16:46;98927.78;;;7.57;70.58
45327;BME280;31062;49.678;24.560;2022-10-16T03:19:13;98830.84;;;6.91;70.93
45327;BME280;31062;49.678;24.560;2022-10-16T03:21:40;98941.41;;;7.55;70.63
45327;BME280;31062;49.678;24.560;2022-10-16T03:24:07;98804.25;;;6.80;70.57
45327;BME280;31062;49.678;24.560;2022-10-16T03:26:34;98904.09;;;7.41;70.15
45327;BME280;31062;49.678;24.560;2022-10-16T03:29:02;98933.28;;;7.57;69.66
45327;BME280;31062;49.678;24.560;2022-10-16T03:31:30;98928.47;;;7.50;69.73
45327;BME280;31062;49.678;24.560;2022-10-16T03:33:57;98722.13;;;5.90;70.01
45327;BME280;31062;49.678;24.560;2022-10-16T03:36:24;98930.47;;;7.29;70.00
45327;BME280;31062;49.678;24.560;2022-10-16T03:38:50;98725.31;;;5.81;70.33
45327;BME280;31062;49.678;24.560;2022-10-16T03:41:17;98791.00;;;6.24;70.52
45327;BME280;31062;49.678;24.560;2022-10-16T03:43:44;98809.34;;;6.08;69.80
45327;BME280;31062;49.678;24.560;2022-10-16T03:46:11;98940.00;;;7.28;70.42
45327;BME280;31062;49.678;24.560;2022-10-16T03:48:38;98777.16;;;6.17;70.17
45327;BME280;31062;49.678;24.560;2022-10-16T03:51:06;98908.53;;;7.03;70.16
45327;BME280;31062;49.678;24.560;2022-10-16T03:53:34;98769.34;;;6.07;70.09
45327;BME280;31062;49.678;24.560;2022-10-16T03:56:01;98923.41;;;7.20;70.24
45327;BME280;31062;49.678;24.560;2022-10-16T03:58:28;98863.59;;;6.61;70.02
45327;BME280;31062;49.678;24.560;2022-10-16T04:00:55;98901.19;;;7.05;70.07
45327;BME280;31062;49.678;24.560;2022-10-16T04:03:21;98932.59;;;7.23;69.96
45327;BME280;31062;49.678;24.560;2022-10-16T04:05:50;98782.97;;;6.13;69.91
45327;BME280;31062;49.678;24.560;2022-10-16T04:08:17;98956.69;;;7.22;69.77
45327;BME280;31062;49.678;24.560;2022-10-16T04:10:45;98981.09;;;7.18;69.86
45327;BME280;31062;49.678;24.560;2022-10-16T04:13:12;98858.97;;;6.42;69.79
45327;BME280;31062;49.678;24.560;2022-10-16T04:15:39;98954.53;;;7.08;69.69
45327;BME280;31062;49.678;24.560;2022-10-16T04:18:06;98959.81;;;7.06;70.55
45327;BME280;31062;49.678;24.560;2022-10-16T04:20:33;98770.19;;;5.76;70.27
45327;BME280;31062;49.678;24.560;2022-10-16T04:23:00;98916.00;;;6.81;69.93
45327;BME280;31062;49.678;24.560;2022-10-16T04:25:27;98859.09;;;6.37;70.14
45327;BME280;31062;49.678;24.560;2022-10-16T04:27:55;98944.16;;;7.01;70.05
45327;BME280;31062;49.678;24.560;2022-10-16T04:30:22;98769.56;;;5.70;69.88
45327;BME280;31062;49.678;24.560;2022-10-16T04:32:50;98899.53;;;6.55;70.30
45327;BME280;31062;49.678;24.560;2022-10-16T04:35:19;98933.53;;;6.91;69.93
45327;BME280;31062;49.678;24.560;2022-10-16T04:37:47;98971.31;;;6.96;69.90
45327;BME280;31062;49.678;24.560;2022-10-16T04:40:15;98763.50;;;5.85;69.81
45327;BME280;31062;49.678;24.560;2022-10-16T04:42:42;98771.22;;;5.86;69.80
45327;BME280;31062;49.678;24.560;2022-10-16T04:45:09;98960.53;;;7.19;69.11
45327;BME280;31062;49.678;24.560;2022-10-16T04:47:42;98756.97;;;5.88;69.16
45327;BME280;31062;49.678;24.560;2022-10-16T04:50:08;98962.94;;;7.23;69.36
45327;BME280;31062;49.678;24.560;2022-10-16T04:52:36;98787.97;;;6.01;68.85
45327;BME280;31062;49.678;24.560;2022-10-16T04:55:03;98977.69;;;7.25;69.07
45327;BME280;31062;49.678;24.560;2022-10-16T04:57:30;98809.44;;;6.16;69.06
45327;BME280;31062;49.678;24.560;2022-10-16T04:59:57;98906.16;;;6.73;69.15
45327;BME280;31062;49.678;24.560;2022-10-16T05:02:24;98898.09;;;6.62;69.15
45327;BME280;31062;49.678;24.560;2022-10-16T05:04:51;98891.56;;;6.38;69.86
45327;BME280;31062;49.678;24.560;2022-10-16T05:07:18;98985.25;;;7.12;70.47
45327;BME280;31062;49.678;24.560;2022-10-16T05:09:45;98982.50;;;7.12;70.58
45327;BME280;31062;49.678;24.560;2022-10-16T05:12:12;98990.97;;;7.14;70.54
45327;BME280;31062;49.678;24.560;2022-10-16T05:14:39;98796.63;;;5.79;71.36
45327;BME280;31062;49.678;24.560;2022-10-16T05:17:06;98987.16;;;7.04;71.65
45327;BME280;31062;49.678;24.560;2022-10-16T05:19:33;98850.44;;;6.06;71.61
45327;BME280;31062;49.678;24.560;2022-10-16T05:22:00;98994.91;;;7.05;71.85
45327;BME280;31062;49.678;24.560;2022-10-16T05:24:27;98991.22;;;7.03;72.04
45327;BME280;31062;49.678;24.560;2022-10-16T05:26:54;98942.53;;;6.58;72.08
45327;BME280;31062;49.678;24.560;2022-10-16T05:29:21;98822.66;;;5.78;72.11
45327;BME280;31062;49.678;24.560;2022-10-16T05:31:51;98954.81;;;6.44;72.21
45327;BME280;31062;49.678;24.560;2022-10-16T05:34:20;98903.56;;;6.28;72.51
45327;BME280;31062;49.678;24.560;2022-10-16T05:36:47;99017.72;;;7.06;72.48
45327;BME280;31062;49.678;24.560;2022-10-16T05:39:15;99028.84;;;7.13;72.84
45327;BME280;31062;49.678;24.560;2022-10-16T05:41:43;98944.66;;;6.52;73.09
45327;BME280;31062;49.678;24.560;2022-10-16T05:44:10;99037.63;;;7.25;72.52
45327;BME280;31062;49.678;24.560;2022-10-16T05:46:38;98993.75;;;7.01;73.26
45327;BME280;31062;49.678;24.560;2022-10-16T05:49:06;99032.91;;;7.33;72.45
45327;BME280;31062;49.678;24.560;2022-10-16T05:51:34;99040.22;;;7.44;72.88
45327;BME280;31062;49.678;24.560;2022-10-16T05:54:01;98956.91;;;6.90;72.33
45327;BME280;31062;49.678;24.560;2022-10-16T05:56:28;98994.75;;;7.24;72.50
45327;BME280;31062;49.678;24.560;2022-10-16T05:58:55;99032.06;;;7.72;72.09
45327;BME280;31062;49.678;24.560;2022-10-16T06:01:23;99051.81;;;7.97;72.03
45327;BME280;31062;49.678;24.560;2022-10-16T06:03:51;98950.78;;;7.39;71.60
45327;BME280;31062;49.678;24.560;2022-10-16T06:06:24;99063.25;;;8.42;71.28
45327;BME280;31062;49.678;24.560;2022-10-16T06:08:56;98870.25;;;7.41;70.34
45327;BME280;31062;49.678;24.560;2022-10-16T06:11:26;99045.66;;;8.81;69.91
45327;BME280;31062;49.678;24.560;2022-10-16T06:13:57;99028.59;;;8.98;69.31
45327;BME280;31062;49.678;24.560;2022-10-16T06:16:25;99058.66;;;9.45;68.86
45327;BME280;31062;49.678;24.560;2022-10-16T06:18:54;99065.53;;;9.67;67.62
45327;BME280;31062;49.678;24.560;2022-10-16T06:21:24;99067.22;;;9.77;67.00
45327;BME280;31062;49.678;24.560;2022-10-16T06:23:53;99036.38;;;9.58;66.75
45327;BME280;31062;49.678;24.560;2022-10-16T06:26:23;99071.72;;;10.11;66.68
45327;BME280;31062;49.678;24.560;2022-10-16T06:28:51;99072.13;;;10.22;65.94
45327;BME280;31062;49.678;24.560;2022-10-16T06:31:18;99076.22;;;10.37;65.42
45327;BME280;31062;49.678;24.560;2022-10-16T06:33:49;98956.06;;;9.43;65.70
45327;BME280;31062;49.678;24.560;2022-10-16T06:36:17;99020.38;;;10.02;65.47
45327;BME280;31062;49.678;24.560;2022-10-16T06:38:45;99039.78;;;10.33;65.44
45327;BME280;31062;49.678;24.560;2022-10-16T06:41:17;99056.97;;;10.54;65.61
45327;BME280;31062;49.678;24.560;2022-10-16T06:43:44;99091.50;;;10.68;65.58
45327;BME280;31062;49.678;24.560;2022-10-16T06:46:14;98976.97;;;10.12;65.73
45327;BME280;31062;49.678;24.560;2022-10-16T06:48:42;99087.22;;;10.97;65.34
45327;BME280;31062;49.678;24.560;2022-10-16T06:51:11;99095.53;;;11.05;64.93
45327;BME280;31062;49.678;24.560;2022-10-16T06:53:41;99070.97;;;10.86;65.14
45327;BME280;31062;49.678;24.560;2022-10-16T06:56:30;99005.22;;;10.49;64.94
45327;BME280;31062;49.678;24.560;2022-10-16T06:58:58;99087.53;;;11.17;64.55
45327;BME280;31062;49.678;24.560;2022-10-16T07:01:26;99054.50;;;10.88;64.74
45327;BME280;31062;49.678;24.560;2022-10-16T07:03:53;98904.97;;;9.97;64.28
45327;BME280;31062;49.678;24.560;2022-10-16T07:06:22;99033.22;;;10.98;64.36
45327;BME280;31062;49.678;24.560;2022-10-16T07:08:50;99082.13;;;11.34;64.29
45327;BME280;31062;49.678;24.560;2022-10-16T07:11:20;98987.63;;;10.69;64.38
45327;BME280;31062;49.678;24.560;2022-10-16T07:13:50;99086.66;;;11.54;64.32
45327;BME280;31062;49.678;24.560;2022-10-16T07:16:24;98914.72;;;10.36;63.21
45327;BME280;31062;49.678;24.560;2022-10-16T07:18:54;99051.56;;;11.34;63.34
45327;BME280;31062;49.678;24.560;2022-10-16T07:21:28;99001.41;;;10.99;63.68
45327;BME280;31062;49.678;24.560;2022-10-16T07:23:58;99119.78;;;11.60;63.55
45327;BME280;31062;49.678;24.560;2022-10-16T07:26:27;99112.56;;;11.57;64.02
45327;BME280;31062;49.678;24.560;2022-10-16T07:28:55;99044.09;;;11.12;63.14
45327;BME280;31062;49.678;24.560;2022-10-16T07:31:24;99087.53;;;11.64;63.92
45327;BME280;31062;49.678;24.560;2022-10-16T07:33:54;99022.75;;;11.22;63.80
45327;BME280;31062;49.678;24.560;2022-10-16T07:36:22;99097.47;;;11.82;63.93
45327;BME280;31062;49.678;24.560;2022-10-16T07:38:50;99005.75;;;11.25;63.64
45327;BME280;31062;49.678;24.560;2022-10-16T07:41:22;99032.09;;;11.49;64.21
45327;BME280;31062;49.678;24.560;2022-10-16T07:43:52;99093.88;;;11.97;63.48
45327;BME280;31062;49.678;24.560;2022-10-16T07:46:20;99100.50;;;12.02;63.26
45327;BME280;31062;49.678;24.560;2022-10-16T07:48:48;98917.88;;;10.80;63.21
45327;BME280;31062;49.678;24.560;2022-10-16T07:51:23;98999.03;;;11.36;63.90
45327;BME280;31062;49.678;24.560;2022-10-16T07:53:52;99055.63;;;11.80;64.83
45327;BME280;31062;49.678;24.560;2022-10-16T07:56:20;99118.16;;;12.21;64.03
45327;BME280;31062;49.678;24.560;2022-10-16T07:58:48;99032.50;;;11.78;63.63
45327;BME280;31062;49.678;24.560;2022-10-16T08:01:17;99117.66;;;12.40;64.00
45327;BME280;31062;49.678;24.560;2022-10-16T08:03:50;99142.81;;;12.50;64.57
45327;BME280;31062;49.678;24.560;2022-10-16T08:06:20;99096.88;;;12.41;64.33
45327;BME280;31062;49.678;24.560;2022-10-16T08:08:54;98979.91;;;11.72;64.22
45327;BME280;31062;49.678;24.560;2022-10-16T08:11:22;98947.03;;;11.61;64.20
45327;BME280;31062;49.678;24.560;2022-10-16T08:13:51;99122.13;;;12.85;64.15
45327;BME280;31062;49.678;24.560;2022-10-16T08:16:21;99123.34;;;12.92;63.56
45327;BME280;31062;49.678;24.560;2022-10-16T08:18:49;98944.00;;;11.74;64.27
45327;BME280;31062;49.678;24.560;2022-10-16T08:21:22;99107.16;;;12.98;63.87
45327;BME280;31062;49.678;24.560;2022-10-16T08:23:50;98939.81;;;11.91;64.19
45327;BME280;31062;49.678;24.560;2022-10-16T08:26:24;99003.66;;;12.40;63.88
45327;BME280;31062;49.678;24.560;2022-10-16T08:28:51;99068.34;;;12.83;63.48
45327;BME280;31062;49.678;24.560;2022-10-16T08:31:20;99134.13;;;13.30;63.73
45327;BME280;31062;49.678;24.560;2022-10-16T08:33:47;99105.22;;;13.42;63.66
45327;BME280;31062;49.678;24.560;2022-10-16T08:36:16;99065.44;;;13.15;62.88
45327;BME280;31062;49.678;24.560;2022-10-16T08:38:43;98689.06;;;10.72;62.24
45327;BME280;31062;49.678;24.560;2022-10-16T08:44:13;99121.06;;;13.67;62.40
45327;BME280;31062;49.678;24.560;2022-10-16T08:49:18;98953.63;;;12.75;62.71
45327;BME280;31062;49.678;24.560;2022-10-16T08:51:45;99080.53;;;13.56;62.43
45327;BME280;31062;49.678;24.560;2022-10-16T08:54:35;99119.97;;;14.06;62.16
45327;BME280;31062;49.678;24.560;2022-10-16T08:57:19;99059.69;;;13.74;62.80
45327;BME280;31062;49.678;24.560;2022-10-16T08:59:50;99128.59;;;14.27;62.51
45327;BME280;31062;49.678;24.560;2022-10-16T09:05:16;99070.66;;;13.99;60.92
45327;BME280;31062;49.678;24.560;2022-10-16T09:18:35;99123.69;;;14.82;60.72
45327;BME280;31062;49.678;24.560;2022-10-16T09:21:18;99123.22;;;14.85;60.73
45327;BME280;31062;49.678;24.560;2022-10-16T09:23:47;99138.81;;;14.88;59.95
45327;BME280;31062;49.678;24.560;2022-10-16T09:26:16;99112.38;;;14.89;60.23
45327;BME280;31062;49.678;24.560;2022-10-16T09:28:44;99124.75;;;15.05;60.86
45327;BME280;31062;49.678;24.560;2022-10-16T09:31:20;99069.47;;;14.75;60.02
45327;BME280;31062;49.678;24.560;2022-10-16T09:33:53;99119.75;;;15.13;60.28
45327;BME280;31062;49.678;24.560;2022-10-16T09:36:23;99089.47;;;15.00;59.58
45327;BME280;31062;49.678;24.560;2022-10-16T09:39:04;98975.06;;;14.25;58.92
45327;BME280;31062;49.678;24.560;2022-10-16T09:41:35;98953.03;;;14.10;59.67
45327;BME280;31062;49.678;24.560;2022-10-16T09:44:06;99028.47;;;14.68;59.25
45327;BME280;31062;49.678;24.560;2022-10-16T09:46:43;99121.06;;;15.32;59.16
45327;BME280;31062;49.678;24.560;2022-10-16T09:49:24;98950.56;;;14.24;58.98
45327;BME280;31062;49.678;24.560;2022-10-16T09:52:02;99114.03;;;15.40;59.36
45327;BME280;31062;49.678;24.560;2022-10-16T09:54:30;99103.88;;;15.45;59.50
45327;BME280;31062;49.678;24.560;2022-10-16T09:57:07;99091.69;;;15.40;58.80
45327;BME280;31062;49.678;24.560;2022-10-16T09:59:46;98989.84;;;14.74;58.29
45327;BME280;31062;49.678;24.560;2022-10-16T10:02:15;98999.84;;;14.77;59.22
45327;BME280;31062;49.678;24.560;2022-10-16T10:04:48;98944.16;;;14.41;58.49
45327;BME280;31062;49.678;24.560;2022-10-16T10:07:20;99111.09;;;15.77;58.52
45327;BME280;31062;49.678;24.560;2022-10-16T10:09:48;99065.53;;;15.55;58.24
45327;BME280;31062;49.678;24.560;2022-10-16T10:12:26;98941.66;;;14.83;57.78
45327;BME280;31062;49.678;24.560;2022-10-16T10:14:56;99096.59;;;16.00;57.70
45327;BME280;31062;49.678;24.560;2022-10-16T10:17:28;99097.75;;;16.06;56.80
45327;BME280;31062;49.678;24.560;2022-10-16T10:20:00;99081.44;;;16.03;56.19
45327;BME280;31062;49.678;24.560;2022-10-16T10:22:45;99083.47;;;16.12;56.57
45327;BME280;31062;49.678;24.560;2022-10-16T10:33:28;99070.16;;;16.22;56.63
45327;BME280;31062;49.678;24.560;2022-10-16T10:47:45;99078.25;;;16.58;55.33
45327;BME280;31062;49.678;24.560;2022-10-16T10:50:25;98924.44;;;15.56;54.70
45327;BME280;31062;49.678;24.560;2022-10-16T10:53:05;99078.22;;;16.68;55.32
45327;BME280;31062;49.678;24.560;2022-10-16T10:55:44;99088.34;;;16.73;53.97
45327;BME280;31062;49.678;24.560;2022-10-16T11:01:10;99059.88;;;16.77;54.01
45327;BME280;31062;49.678;24.560;2022-10-16T11:04:06;99052.69;;;16.73;54.29
45327;BME280;31062;49.678;24.560;2022-10-16T11:06:58;99073.22;;;16.88;54.20
45327;BME280;31062;49.678;24.560;2022-10-16T11:09:35;99079.69;;;16.90;54.87
45327;BME280;31062;49.678;24.560;2022-10-16T11:12:31;98903.56;;;15.88;53.98
45327;BME280;31062;49.678;24.560;2022-10-16T11:15:11;98898.06;;;16.00;53.94
45327;BME280;31062;49.678;24.560;2022-10-16T11:17:48;99061.06;;;17.16;54.22
45327;BME280;31062;49.678;24.560;2022-10-16T11:20:21;99075.75;;;17.26;54.91
45327;BME280;31062;49.678;24.560;2022-10-16T11:22:54;98970.03;;;16.72;53.42
45327;BME280;31062;49.678;24.560;2022-10-16T11:25:27;98966.66;;;16.74;52.38
45327;BME280;31062;49.678;24.560;2022-10-16T11:30:30;99064.63;;;17.49;52.12
45327;BME280;31062;49.678;24.560;2022-10-16T11:36:33;99019.34;;;17.32;51.55
45327;BME280;31062;49.678;24.560;2022-10-16T11:47:24;98962.50;;;17.08;52.52
45327;BME280;31062;49.678;24.560;2022-10-16T11:50:29;99043.47;;;17.70;52.82
45327;BME280;31062;49.678;24.560;2022-10-16T11:53:25;98899.66;;;16.66;53.03
45327;BME280;31062;49.678;24.560;2022-10-16T11:55:58;99010.25;;;17.54;52.68
45327;BME280;31062;49.678;24.560;2022-10-16T12:00:57;99079.09;;;17.79;50.45
45327;BME280;31062;49.678;24.560;2022-10-16T12:03:48;99052.63;;;17.82;51.08
45327;BME280;31062;49.678;24.560;2022-10-16T12:06:48;99061.06;;;17.82;51.44
45327;BME280;31062;49.678;24.560;2022-10-16T12:09:29;99037.09;;;17.58;50.84
45327;BME280;31062;49.678;24.560;2022-10-16T12:11:57;98953.66;;;17.23;50.94
45327;BME280;31062;49.678;24.560;2022-10-16T12:14:36;99059.25;;;17.86;51.43
45327;BME280;31062;49.678;24.560;2022-10-16T12:17:36;98928.50;;;17.02;51.51
45327;BME280;31062;49.678;24.560;2022-10-16T12:22:47;99048.88;;;17.89;50.75
45327;BME280;31062;49.678;24.560;2022-10-16T12:25:40;99052.53;;;17.91;51.55
45327;BME280;31062;49.678;24.560;2022-10-16T12:28:20;99067.41;;;17.94;50.49
45327;BME280;31062;49.678;24.560;2022-10-16T12:30:57;98898.66;;;16.95;50.66
45327;BME280;31062;49.678;24.560;2022-10-16T12:33:33;98899.97;;;16.94;50.36
45327;BME280;31062;49.678;24.560;2022-10-16T12:36:04;99049.63;;;18.01;50.51
45327;BME280;31062;49.678;24.560;2022-10-16T12:38:49;99047.19;;;18.07;50.67
45327;BME280;31062;49.678;24.560;2022-10-16T12:41:44;99047.44;;;18.11;49.46
45327;BME280;31062;49.678;24.560;2022-10-16T12:44:23;98900.88;;;17.08;48.74
45327;BME280;31062;49.678;24.560;2022-10-16T12:46:50;99046.72;;;18.11;49.83
45327;BME280;31062;49.678;24.560;2022-10-16T12:49:31;98910.25;;;17.12;48.35
45327;BME280;31062;49.678;24.560;2022-10-16T12:52:00;99015.94;;;17.78;48.49
45327;BME280;31062;49.678;24.560;2022-10-16T12:54:34;98844.94;;;16.54;48.96
45327;BME280;31062;49.678;24.560;2022-10-16T13:08:06;99050.13;;;17.98;49.44
45327;BME280;31062;49.678;24.560;2022-10-16T13:15:49;99015.31;;;17.68;50.25
45327;BME280;31062;49.678;24.560;2022-10-16T13:18:28;98905.59;;;16.94;50.39
45327;BME280;31062;49.678;24.560;2022-10-16T13:23:38;99047.19;;;17.95;50.38
45327;BME280;31062;49.678;24.560;2022-10-16T13:28:45;99037.22;;;17.60;50.74
45327;BME280;31062;49.678;24.560;2022-10-16T13:31:23;98909.34;;;16.87;50.48
45327;BME280;31062;49.678;24.560;2022-10-16T13:33:54;99046.41;;;17.72;49.52
45327;BME280;31062;49.678;24.560;2022-10-16T13:36:34;99029.13;;;17.75;49.21
45327;BME280;31062;49.678;24.560;2022-10-16T13:39:14;98926.09;;;17.08;49.07
45327;BME280;31062;49.678;24.560;2022-10-16T13:41:44;99067.53;;;17.96;48.78
45327;BME280;31062;49.678;24.560;2022-10-16T13:44:19;99015.91;;;17.66;48.77
45327;BME280;31062;49.678;24.560;2022-10-16T13:47:21;99063.28;;;17.95;48.77
45327;BME280;31062;49.678;24.560;2022-10-16T13:50:13;99063.28;;;17.95;48.83
45327;BME280;31062;49.678;24.560;2022-10-16T13:52:42;99067.41;;;17.94;48.26
45327;BME280;31062;49.678;24.560;2022-10-16T13:55:12;99073.66;;;17.92;48.63
45327;BME280;31062;49.678;24.560;2022-10-16T13:57:39;99067.16;;;17.90;48.72
45327;BME280;31062;49.678;24.560;2022-10-16T14:00:26;98904.31;;;16.73;48.51
45327;BME280;31062;49.678;24.560;2022-10-16T14:03:02;99037.47;;;17.64;48.67
45327;BME280;31062;49.678;24.560;2022-10-16T14:05:30;99042.25;;;17.61;48.43
45327;BME280;31062;49.678;24.560;2022-10-16T14:07:58;99082.50;;;17.77;48.86
45327;BME280;31062;49.678;24.560;2022-10-16T14:10:28;99070.44;;;17.75;48.77
45327;BME280;31062;49.678;24.560;2022-10-16T14:12:57;99083.00;;;17.74;48.88
45327;BME280;31062;49.678;24.560;2022-10-16T14:15:25;99034.19;;;17.34;49.20
45327;BME280;31062;49.678;24.560;2022-10-16T14:17:52;99053.91;;;17.58;49.28
45327;BME280;31062;49.678;24.560;2022-10-16T14:20:26;99075.69;;;17.69;49.82
45327;BME280;31062;49.678;24.560;2022-10-16T14:23:03;99076.88;;;17.66;49.57
45327;BME280;31062;49.678;24.560;2022-10-16T14:25:33;99066.47;;;17.57;49.73
45327;BME280;31062;49.678;24.560;2022-10-16T14:30:37;99061.66;;;17.47;50.03
45327;BME280;31062;49.678;24.560;2022-10-16T14:33:18;99083.16;;;17.54;50.04
45327;BME280;31062;49.678;24.560;2022-10-16T14:36:15;99087.03;;;17.49;50.04
45327;BME280;31062;49.678;24.560;2022-10-16T14:39:14;99084.09;;;17.47;50.52
45327;BME280;31062;49.678;24.560;2022-10-16T14:41:50;99065.78;;;17.35;50.56
45327;BME280;31062;49.678;24.560;2022-10-16T14:44:18;99075.06;;;17.37;50.48
45327;BME280;31062;49.678;24.560;2022-10-16T14:46:47;99099.88;;;17.31;51.18
45327;BME280;31062;49.678;24.560;2022-10-16T14:49:19;99084.53;;;17.32;51.23
45327;BME280;31062;49.678;24.560;2022-10-16T14:51:48;99011.94;;;16.82;51.65
45327;BME280;31062;49.678;24.560;2022-10-16T14:54:18;99085.22;;;17.21;51.42
45327;BME280;31062;49.678;24.560;2022-10-16T14:56:53;99079.34;;;17.17;52.08